TimeEDT,TemperatureF,Dew PointF,Humidity,Sea Level PressureIn,VisibilityMPH,Wind Direction,Wind SpeedMPH,Gust SpeedMPH,PrecipitationIn,Events,Conditions,WindDirDegrees,DateUTC
12:51 AM,73.9,69.1,85,29.89,10.0,SW,11.5,-,N/A,,Mostly Cloudy,220,2013-08-31 04:51:00
1:51 AM,73.9,68.0,82,29.88,10.0,SW,12.7,-,N/A,,Scattered Clouds,220,2013-08-31 05:51:00
2:51 AM,73.0,69.1,87,29.88,10.0,SW,10.4,-,N/A,,Scattered Clouds,230,2013-08-31 06:51:00
3:51 AM,72.0,68.0,87,29.88,10.0,SW,11.5,-,N/A,,Scattered Clouds,220,2013-08-31 07:51:00
4:51 AM,72.0,68.0,87,29.87,10.0,SW,11.5,-,N/A,,Scattered Clouds,230,2013-08-31 08:51:00
5:05 AM,71.6,69.8,94,29.87,10.0,WSW,13.8,-,N/A,,Scattered Clouds,240,2013-08-31 09:05:00
5:12 AM,71.6,69.8,94,29.87,10.0,SW,12.7,-,N/A,,Mostly Cloudy,230,2013-08-31 09:12:00
5:51 AM,73.0,69.1,87,29.88,10.0,WSW,18.4,-,N/A,,Mostly Cloudy,240,2013-08-31 09:51:00
6:51 AM,73.0,69.1,87,29.88,9.0,WSW,11.5,-,N/A,,Overcast,240,2013-08-31 10:51:00
7:07 AM,73.4,69.8,88,29.87,10.0,SW,13.8,-,N/A,,Overcast,230,2013-08-31 11:07:00
7:51 AM,73.0,69.1,87,29.88,10.0,SSW,8.1,-,N/A,,Overcast,200,2013-08-31 11:51:00
8:51 AM,73.0,69.1,87,29.88,10.0,South,9.2,-,N/A,,Overcast,190,2013-08-31 12:51:00
9:51 AM,75.0,69.1,82,29.89,10.0,SSW,8.1,-,N/A,,Overcast,210,2013-08-31 13:51:00
10:51 AM,77.0,69.1,76,29.88,10.0,SW,12.7,-,N/A,,Overcast,230,2013-08-31 14:51:00
11:35 AM,78.8,69.8,74,29.87,10.0,SSW,11.5,-,N/A,,Overcast,210,2013-08-31 15:35:00
11:51 AM,78.1,70.0,76,29.88,10.0,SSW,12.7,-,N/A,,Overcast,200,2013-08-31 15:51:00
12:43 PM,80.6,69.8,70,29.86,10.0,WSW,9.2,-,N/A,,Mostly Cloudy,240,2013-08-31 16:43:00
12:51 PM,80.1,70.0,71,29.87,10.0,SSW,8.1,-,N/A,,Mostly Cloudy,200,2013-08-31 16:51:00
1:51 PM,81.0,70.0,69,29.86,10.0,SSW,8.1,-,N/A,,Mostly Cloudy,200,2013-08-31 17:51:00
2:51 PM,81.0,70.0,69,29.85,9.0,SSW,8.1,-,N/A,,Mostly Cloudy,200,2013-08-31 18:51:00
3:51 PM,81.0,71.1,72,29.84,9.0,South,9.2,-,N/A,,Mostly Cloudy,170,2013-08-31 19:51:00
4:51 PM,79.0,71.1,77,29.81,9.0,South,15.0,-,N/A,,Overcast,180,2013-08-31 20:51:00
5:51 PM,79.0,72.0,79,29.82,10.0,South,15.0,-,N/A,,Mostly Cloudy,190,2013-08-31 21:51:00
6:51 PM,78.1,71.1,79,29.82,10.0,South,13.8,-,N/A,,Mostly Cloudy,190,2013-08-31 22:51:00
7:51 PM,77.0,71.1,82,29.83,9.0,SSW,12.7,-,N/A,,Mostly Cloudy,200,2013-08-31 23:51:00
8:51 PM,75.9,71.1,85,29.84,10.0,South,15.0,-,N/A,,Mostly Cloudy,190,2013-09-01 00:51:00
9:51 PM,75.9,71.1,85,29.85,10.0,South,13.8,-,N/A,,Mostly Cloudy,190,2013-09-01 01:51:00
10:51 PM,75.0,71.1,87,29.86,10.0,South,10.4,-,N/A,,Mostly Cloudy,190,2013-09-01 02:51:00
11:51 PM,75.0,71.1,87,29.85,10.0,South,6.9,-,N/A,,Mostly Cloudy,190,2013-09-01 03:51:00